x

Cape Elizabeth- 45nm Nw Of Aberdeen, Wa (46041) Wave Buoy

4:50pm - Sat 30th Jul 2016 All times are PDT. -7 hours from GMT.

  • Sig Wave height 9.5ft
  • Swell Direction
  • Peak Period 10s
  • Average Period 7s
  • Wind
    16mph, 18mph gusts
  • Sea Temp 55°f
  • 空気 Temp 57°f
  • Sea Pressure 1016.8mb
  • Cape Elizabeth- 45nm Nw Of Aberdeen, Wa
  • Cape Elizabeth- 45nm Nw Of Aberdeen, Wa

More Historic Weather Station data

Upgrade to MSW Pro to gain access to the past 30 days of data for over 8000 Wavebouys and Weather Stations around the globe.

Join Pro

Comparision Forecast

View Surf forecast
   
Sat 07/30 4:50pm 9.5ft 10s 7s 16 18 mph 1016.8mb 55f 57f
3:50pm 10ft 9s 7s 18 20 mph 1016.9mb 55f 57f
2:50pm 9ft 8s 7s 13 16 mph 1017.1mb 55f 57f
1:50pm 9.5ft 10s 7s 13 16 mph 1016.8mb 55f 56f
12:50pm 9.5ft 10s 7s 13 16 mph 1016.6mb 54f 56f
11:50am 10ft 9s 7s 13 16 mph 1016.1mb 54f 56f
10:50am 10ft 9s 7s 18 22 mph 1015.4mb 54f 56f
9:50am 10.5ft 10s 7s 20 25 mph 1015.1mb 54f 56f
8:50am 11ft 10s 7s 22 27 mph 1014.6mb 55f 57f
7:50am 11ft 10s 7s 20 25 mph 1014.2mb 55f 57f
6:50am 10.5ft 10s 7s 16 20 mph 1014.1mb 55f 57f
5:50am 10ft 10s 7s 16 18 mph 1013.9mb 55f 57f
4:50am 9ft 9s 7s 16 18 mph 1014.1mb 55f 57f
3:50am 9ft 10s 7s 16 20 mph 1014.1mb 56f 57f
2:50am 9ft 10s 7s 16 18 mph 1014.3mb 56f 57f
1:50am 10ft 9s 7s 16 18 mph 1014.5mb 56f 57f
12:50am 9.5ft 9s 7s 16 18 mph 1014.7mb 56f 57f
Fri 07/29 10:50pm 9ft 9s 7s 16 18 mph 1015.2mb 56f 57f
9:50pm 8ft 9s 6s 16 18 mph 1015.3mb 56f 58f
8:50pm 7.5ft 8s 6s 18 20 mph 1015.3mb 56f 58f
7:50pm 7ft 8s 6s 18 22 mph 1015.4mb 56f 58f
6:50pm 6.5ft 8s 6s 20 25 mph 1015.4mb 56f 58f
5:50pm 6.5ft 8s 6s 20 25 mph 1015.7mb 56f 58f
4:50pm 6ft 9s 6s 20 22 mph 1016.2mb 56f 58f
3:50pm 5.5ft 8s 6s 18 20 mph 1016.3mb 57f 58f
2:50pm 5.5ft 9s 6s 20 22 mph 1016.4mb 57f 58f
1:50pm 5.5ft 8s 6s 13 18 mph 1016.7mb 57f 58f
12:50pm 6ft 9s 6s 9 11 mph 1016.9mb 57f 58f
11:50am 6.5ft 8s 6s 9
mph
1017mb 56f 58f
10:50am 7ft 9s 6s 7 9 mph 1017mb 56f 57f
9:50am 7ft 8s 6s 4 7 mph 1017.1mb 56f 57f
8:50am 6ft 7s 6s 7 9 mph 1017mb 56f 57f
7:50am 6ft 8s 6s 7 9 mph 1017.1mb 56f 57f
6:50am 6.5ft 8s 6s 11 13 mph 1016.9mb 56f 57f
5:50am 6.5ft 8s 6s 11 13 mph 1016.8mb 56f 57f
4:50am 6ft 8s 6s 11 13 mph 1016.9mb 56f 57f
3:50am 5.5ft 8s 6s 9 11 mph 1017.2mb 57f 57f
2:50am 5ft 8s 6s 13 16 mph 1017.2mb 57f 57f
1:50am 5ft 8s 6s 11 13 mph 1017.4mb 57f 57f
12:50am 5ft 8s 6s 9
mph
1017.8mb 56f 57f
Thu 07/28 11:50pm 5ft 8s 5s 11
mph
1017.8mb 56f 57f
10:50pm 6ft 8s 6s 16 18 mph 1017.8mb 56f 57f
9:50pm 5ft 8s 5s 18 20 mph 1017.7mb 56f 58f
8:50pm 5ft 8s 5s 18 20 mph 1017.7mb 57f 58f
7:50pm 5ft 7s 5s 16 18 mph 1017.7mb 57f 58f
6:50pm 5ft 7s 6s 16 18 mph 1018.2mb 57f 59f
5:50pm 5ft 8s 5s 18 20 mph 1018.7mb 58f 57f
4:50pm 5ft 8s 5s 18 20 mph 1019mb 59f 56f
3:50pm 5ft 8s 6s 18 20 mph 1019.3mb 60f 59f
2:50pm 4.5ft 8s 6s 9 11 mph 1019.8mb 61f 60f
1:50pm 5ft 8s 6s 9
mph
1020mb 61f 60f
12:50pm 5ft 8s 6s 2 4 mph 1020.6mb 59f 58f
11:50am 5ft 8s 6s 4 7 mph 1020.7mb 59f 57f
10:50am 5.5ft 8s 6s  -  4 mph 1020.7mb 57f 58f
9:50am 5.5ft 8s 6s  -  2 mph 1020.7mb 56f 58f
8:50am 6ft 8s 6s 2
mph
1020.6mb 56f 58f
7:50am 6ft 8s 6s 7
mph
1020.7mb 56f 57f
6:50am 5.5ft 8s 6s 7
mph
1020.5mb 57f 57f
5:50am 5.5ft 8s 6s 13 16 mph 1020.5mb 56f 57f
4:50am 5ft 7s 5s 16 18 mph 1020.4mb 56f 57f
3:50am 5ft 8s 5s 16 18 mph 1020.6mb 57f 57f
2:50am 5.5ft 7s 6s 16 20 mph 1020.5mb 57f 58f
1:50am 5ft 7s 5s 16 18 mph 1020.5mb 58f 59f
12:50am 5ft 8s 5s 16 18 mph 1020.8mb 58f 59f
Wed 07/27 11:50pm 5ft 8s 5s 18 22 mph 1020.8mb 58f 58f
10:50pm 5ft 8s 5s 20 25 mph 1021mb 58f 59f
9:50pm 5ft 8s 5s 20 25 mph 1020.6mb 58f 59f
8:50pm 5ft 8s 5s 16 20 mph 1020.1mb 58f 59f
7:50pm 5ft 7s 5s 18 25 mph 1019.9mb 58f 59f
6:50pm 5.5ft 7s 6s 18 20 mph 1020.2mb 58f 59f
5:50pm 5.5ft 8s 5s 20 22 mph 1020.4mb 58f 58f
4:50pm 5ft 8s 5s 18 20 mph 1020.6mb 59f 58f
3:50pm 5ft 8s 6s 20 22 mph 1020.9mb 59f 58f
2:50pm 5.5ft 8s 6s 13 16 mph 1021.3mb 59f 57f
1:50pm 5ft 8s 5s 13 16 mph 1021.4mb 59f 57f
12:50pm 5ft 8s 6s 13 18 mph 1021.7mb 59f 57f
11:50am 5ft 8s 6s 13 16 mph 1021.7mb 58f 57f
10:50am 5ft 8s 6s 11 13 mph 1021.4mb 58f 56f
9:50am 5ft 8s 6s 11 16 mph 1021.1mb 57f 58f
8:50am 5ft 8s 6s 11 13 mph 1020.9mb 57f 58f
7:50am 5ft 8s 6s 9 11 mph 1020.7mb 57f 58f
6:50am 5ft 8s 6s 11 13 mph 1020.3mb 57f 58f
5:50am 5ft 8s 6s 11 13 mph 1019.9mb 57f 59f
4:50am 5ft 8s 6s 11 16 mph 1020mb 57f 59f
3:50am 5ft 7s 6s 7
mph
1020.4mb 56f 58f
2:50am 4.5ft 9s 6s 4 7 mph 1020.4mb 56f 58f
1:50am 4.5ft 9s 6s 9
mph
1020.4mb 56f 58f
12:50am 4.5ft 7s 5s 4 7 mph 1020.7mb 57f 56f